createdAt,value
2022-11-19T00:00:04.499Z,50.060001
2022-11-19T00:01:13.068Z,50.080002
2022-11-19T00:02:21.759Z,50.085999
2022-11-19T00:03:31.218Z,50.085999
2022-11-19T00:04:38.781Z,50.098
2022-11-19T00:05:47.367Z,50.122002
2022-11-19T00:06:57.018Z,50.133999
2022-11-19T00:08:05.542Z,50.139999
2022-11-19T00:09:14.097Z,50.146
2022-11-19T00:10:23.672Z,50.155998
2022-11-19T00:11:31.268Z,50.161999
2022-11-19T00:12:38.830Z,50.167999
2022-11-19T00:13:48.450Z,50.155998
2022-11-19T00:14:57.044Z,50.18
2022-11-19T00:16:06.608Z,50.147999
2022-11-19T00:17:15.220Z,50.161999
2022-11-19T00:18:23.779Z,50.155998
2022-11-19T00:19:33.358Z,50.155998
2022-11-19T00:20:41.930Z,50.155998
2022-11-19T00:21:49.507Z,50.161999
2022-11-19T00:22:59.117Z,50.124001
2022-11-19T00:24:08.716Z,50.141998
2022-11-19T00:25:17.262Z,50.124001
2022-11-19T00:26:25.848Z,50.130001
2022-11-19T00:27:34.437Z,50.124001
2022-11-19T00:28:44.010Z,50.105999
2022-11-19T00:29:51.578Z,50.112
2022-11-19T00:31:01.204Z,50.105999
2022-11-19T00:32:10.752Z,50.118
2022-11-19T00:33:19.306Z,50.104
2022-11-19T00:34:27.873Z,50.109001
2022-11-19T00:35:36.448Z,50.104
2022-11-19T00:36:46.027Z,50.091
2022-11-19T00:37:55.619Z,50.083
2022-11-19T00:39:04.198Z,50.058998
2022-11-19T00:40:11.786Z,50.047001
2022-11-19T00:41:21.341Z,50.041
2022-11-19T00:42:29.939Z,50.035
2022-11-19T00:43:38.529Z,50.022999
2022-11-19T00:44:48.109Z,50.053001
2022-11-19T00:45:56.701Z,50.053001
2022-11-19T00:47:06.361Z,50.044998
2022-11-19T00:48:15.888Z,50.063
2022-11-19T00:49:23.471Z,50.056999
2022-11-19T00:50:33.048Z,50.081001
2022-11-19T00:51:41.620Z,50.087002
2022-11-19T00:52:50.232Z,50.118999
2022-11-19T00:53:58.847Z,50.101002
2022-11-19T00:55:07.373Z,50.089001
2022-11-19T00:56:16.974Z,50.089001
2022-11-19T00:57:24.584Z,50.118999
2022-11-19T00:58:32.165Z,50.132999
2022-11-19T00:59:41.767Z,50.175999
2022-11-19T01:00:50.366Z,50.165001
2022-11-19T01:01:58.913Z,50.153
2022-11-19T01:03:07.500Z,50.153
2022-11-19T01:04:16.058Z,50.153
2022-11-19T01:05:25.637Z,50.182999
2022-11-19T01:06:33.217Z,50.165001
2022-11-19T01:07:40.816Z,50.182999
2022-11-19T01:08:50.372Z,50.195
2022-11-19T01:09:58.949Z,50.201
2022-11-19T01:11:07.513Z,50.188999
2022-11-19T01:12:16.120Z,50.171001
2022-11-19T01:13:24.669Z,50.176998
2022-11-19T01:14:34.262Z,50.174999
2022-11-19T01:15:42.823Z,50.199001
2022-11-19T01:16:50.416Z,50.216999
2022-11-19T01:18:00.033Z,50.205002
2022-11-19T01:19:08.625Z,50.223
2022-11-19T01:20:17.215Z,50.235001
2022-11-19T01:21:25.773Z,50.254002
2022-11-19T01:22:34.356Z,50.290001
2022-11-19T01:23:43.953Z,50.296001
2022-11-19T01:24:51.534Z,50.327999
2022-11-19T01:25:59.116Z,50.321999
2022-11-19T01:27:08.727Z,50.370998
2022-11-19T01:28:17.315Z,50.382999
2022-11-19T01:29:25.866Z,50.424999
2022-11-19T01:30:34.466Z,50.459
2022-11-19T01:31:43.051Z,50.483002
2022-11-19T01:32:52.699Z,50.477001
2022-11-19T01:34:01.348Z,50.494999
2022-11-19T01:35:10.952Z,50.500999
2022-11-19T01:36:20.550Z,50.514
2022-11-19T01:37:29.187Z,50.526001
2022-11-19T01:38:37.818Z,50.494999
2022-11-19T01:39:46.450Z,50.500999
2022-11-19T01:40:55.051Z,50.52
2022-11-19T01:42:04.679Z,50.532001
2022-11-19T01:43:12.300Z,50.526001
2022-11-19T01:44:20.916Z,50.537998
2022-11-19T01:45:30.531Z,50.526001
2022-11-19T01:46:39.159Z,50.507999
2022-11-19T01:47:47.742Z,50.471001
2022-11-19T01:48:56.365Z,50.480999
2022-11-19T01:50:04.951Z,50.480999
2022-11-19T01:51:14.646Z,50.480999
2022-11-19T01:52:23.201Z,50.480999
2022-11-19T01:53:30.771Z,50.480999
2022-11-19T01:54:40.347Z,50.466999
2022-11-19T01:55:49.937Z,50.460999
2022-11-19T01:56:58.514Z,50.493
2022-11-19T01:58:07.102Z,50.499001
2022-11-19T01:59:16.808Z,50.499001
2022-11-19T02:00:26.264Z,50.494999
2022-11-19T02:01:34.901Z,50.525002
2022-11-19T02:02:42.425Z,50.536999
2022-11-19T02:03:52.004Z,50.494999
2022-11-19T02:05:00.589Z,50.519001
2022-11-19T02:06:09.126Z,50.549
2022-11-19T02:07:18.784Z,50.549
2022-11-19T02:08:28.303Z,50.500999
2022-11-19T02:09:35.896Z,50.507
2022-11-19T02:10:45.496Z,50.542999
2022-11-19T02:11:54.069Z,50.536999
2022-11-19T02:13:03.662Z,50.536999
2022-11-19T02:14:12.245Z,50.553001
2022-11-19T02:15:20.874Z,50.541
2022-11-19T02:16:30.497Z,50.528999
2022-11-19T02:17:39.099Z,50.516998
2022-11-19T02:18:46.662Z,50.541
2022-11-19T02:19:56.222Z,50.522999
2022-11-19T02:21:04.792Z,50.522999
2022-11-19T02:22:13.370Z,50.553001
2022-11-19T02:23:21.955Z,50.564999
2022-11-19T02:24:31.310Z,50.570999
2022-11-19T02:25:40.893Z,50.558998
2022-11-19T02:26:48.462Z,50.605
2022-11-19T02:27:56.042Z,50.624001
2022-11-19T02:29:05.614Z,50.641998
2022-11-19T02:30:14.265Z,50.634998
2022-11-19T02:31:22.850Z,50.634998
2022-11-19T02:32:31.468Z,50.66
2022-11-19T02:33:40.004Z,50.647999
2022-11-19T02:34:49.581Z,50.653999
2022-11-19T02:35:58.148Z,50.683998
2022-11-19T02:37:06.715Z,50.695999
2022-11-19T02:38:16.326Z,50.678001
2022-11-19T02:39:26.916Z,50.666
2022-11-19T02:40:36.473Z,50.708
2022-11-19T02:41:45.050Z,50.708
2022-11-19T02:42:53.623Z,50.708
2022-11-19T02:44:03.188Z,50.727001
2022-11-19T02:45:10.757Z,50.706001
2022-11-19T02:46:19.350Z,50.694
2022-11-19T02:47:28.926Z,50.717999
2022-11-19T02:48:38.512Z,50.742001
2022-11-19T02:49:47.104Z,50.759998
2022-11-19T02:50:56.652Z,50.778999
2022-11-19T02:52:06.216Z,50.803001
2022-11-19T02:53:13.807Z,50.778999
2022-11-19T02:54:23.371Z,50.803001
2022-11-19T02:55:31.961Z,50.803001
2022-11-19T02:56:40.511Z,50.797001
2022-11-19T02:57:49.085Z,50.791
2022-11-19T02:58:58.633Z,50.803001
2022-11-19T03:00:08.213Z,50.791
2022-11-19T03:01:15.817Z,50.797001
2022-11-19T03:02:23.337Z,50.860001
2022-11-19T03:03:32.927Z,50.846001
2022-11-19T03:04:41.515Z,50.814999
2022-11-19T03:05:50.074Z,50.803001
2022-11-19T03:06:58.709Z,50.810001
2022-11-19T03:08:07.253Z,50.791
2022-11-19T03:09:17.015Z,50.797001
2022-11-19T03:10:24.384Z,50.806999
2022-11-19T03:11:32.988Z,50.806999
2022-11-19T03:12:42.556Z,50.825001
2022-11-19T03:13:52.174Z,50.825001
2022-11-19T03:15:01.792Z,50.874001
2022-11-19T03:16:11.353Z,50.886002
2022-11-19T03:17:19.991Z,50.91
2022-11-19T03:18:29.595Z,50.91
2022-11-19T03:19:37.218Z,50.935001
2022-11-19T03:20:44.794Z,50.955002
2022-11-19T03:21:54.406Z,50.955002
2022-11-19T03:23:03.016Z,50.998001
2022-11-19T03:24:11.633Z,50.973
2022-11-19T03:25:20.242Z,50.969002
2022-11-19T03:26:28.808Z,51.005001
2022-11-19T03:27:38.496Z,51.016998
2022-11-19T03:28:48.067Z,51.062
2022-11-19T03:29:55.722Z,51.062
2022-11-19T03:31:05.331Z,51.049999
2022-11-19T03:32:13.912Z,51.062
2022-11-19T03:33:22.558Z,51.062
2022-11-19T03:34:31.158Z,51.049999
2022-11-19T03:35:39.717Z,51.080002
2022-11-19T03:36:48.275Z,51.080002
2022-11-19T03:37:55.856Z,51.074001
2022-11-19T03:39:03.442Z,51.068001
2022-11-19T03:40:13.040Z,51.074001
2022-11-19T03:41:21.606Z,51.037998
2022-11-19T03:42:30.163Z,51.043999
2022-11-19T03:43:38.859Z,51.062
2022-11-19T03:44:47.338Z,51.063999
2022-11-19T03:45:56.929Z,51.063999
2022-11-19T03:47:05.483Z,51.063999
2022-11-19T03:48:13.109Z,51.056999
2022-11-19T03:49:22.656Z,51.063999
2022-11-19T03:50:30.228Z,51.039001
2022-11-19T03:51:38.789Z,51.033001
2022-11-19T03:52:47.386Z,51.021
2022-11-19T03:53:55.969Z,51.033001
2022-11-19T03:55:05.585Z,51.044998
2022-11-19T03:56:13.153Z,51.07
2022-11-19T03:57:20.815Z,51.063999
2022-11-19T03:58:30.350Z,51.039001
2022-11-19T03:59:39.033Z,50.985001
2022-11-19T04:00:47.568Z,50.938999
2022-11-19T04:01:56.212Z,50.951
2022-11-19T04:03:05.775Z,50.909
2022-11-19T04:04:13.380Z,50.884998
2022-11-19T04:05:23.040Z,50.854
2022-11-19T04:06:31.682Z,50.873001
2022-11-19T04:07:40.415Z,50.834
2022-11-19T04:08:49.003Z,50.834
2022-11-19T04:09:57.526Z,50.810001
2022-11-19T04:11:31.761Z,50.785
2022-11-19T04:12:39.363Z,50.755001
2022-11-19T04:13:47.008Z,50.730999
2022-11-19T04:14:56.715Z,50.719002
2022-11-19T04:16:06.162Z,50.702
2022-11-19T04:17:14.732Z,50.683998
2022-11-19T04:18:23.300Z,50.672001
2022-11-19T04:19:31.870Z,50.672001
2022-11-19T04:20:41.441Z,50.647999
2022-11-19T04:21:50.007Z,50.653999
2022-11-19T04:22:58.591Z,50.629002
2022-11-19T04:24:08.154Z,50.603001
2022-11-19T04:25:16.710Z,50.617001
2022-11-19T04:26:25.316Z,50.591
2022-11-19T04:27:34.916Z,50.591
2022-11-19T04:28:43.494Z,50.573002
2022-11-19T04:29:53.062Z,50.567001
2022-11-19T04:31:00.678Z,50.573002
2022-11-19T04:32:08.212Z,50.567001
2022-11-19T04:33:17.805Z,50.573002
2022-11-19T04:34:27.360Z,50.532001
2022-11-19T04:35:36.933Z,50.551998
2022-11-19T04:36:45.484Z,50.537998
2022-11-19T04:37:54.058Z,50.526001
2022-11-19T04:39:03.639Z,50.532001
2022-11-19T04:40:11.193Z,50.507999
2022-11-19T04:41:18.790Z,50.52
2022-11-19T04:42:28.332Z,50.52
2022-11-19T04:43:37.910Z,50.514
2022-11-19T04:44:46.483Z,50.495998
2022-11-19T04:45:56.045Z,50.490002
2022-11-19T04:47:05.637Z,50.507999
2022-11-19T04:48:15.207Z,50.507999
2022-11-19T04:49:23.813Z,50.501999
2022-11-19T04:50:31.361Z,50.490002
2022-11-19T04:51:40.947Z,50.501999
2022-11-19T04:52:49.533Z,50.507999
2022-11-19T04:53:58.099Z,50.466999
2022-11-19T04:55:06.672Z,50.493
2022-11-19T04:56:15.259Z,50.460999
2022-11-19T04:57:24.812Z,50.455002
2022-11-19T04:58:32.387Z,50.460999
2022-11-19T04:59:40.950Z,50.460999
2022-11-19T05:00:50.538Z,50.443001
2022-11-19T05:02:00.209Z,50.443001
2022-11-19T05:03:09.777Z,50.466999
2022-11-19T05:04:19.347Z,50.455002
2022-11-19T05:05:27.901Z,50.443001
2022-11-19T05:06:37.462Z,50.437
2022-11-19T05:07:46.044Z,50.418999
2022-11-19T05:08:54.617Z,50.424999
2022-11-19T05:10:04.202Z,50.401001
2022-11-19T05:11:12.778Z,50.375999
2022-11-19T05:12:22.380Z,50.395
2022-11-19T05:13:30.951Z,50.388
2022-11-19T05:14:39.530Z,50.382
2022-11-19T05:15:49.111Z,50.358002
2022-11-19T05:16:57.689Z,50.352001
2022-11-19T05:18:05.269Z,50.32
2022-11-19T05:19:14.924Z,50.334
2022-11-19T05:20:24.435Z,50.307999
2022-11-19T05:21:33.023Z,50.296001
2022-11-19T05:22:41.603Z,50.301998
2022-11-19T05:23:50.401Z,50.307999
2022-11-19T05:24:59.990Z,50.290001
2022-11-19T05:26:08.688Z,50.277
2022-11-19T05:27:15.285Z,50.296001
2022-11-19T05:28:37.842Z,50.283001
2022-11-19T05:29:34.412Z,50.300999
2022-11-19T05:30:42.984Z,50.300999
2022-11-19T05:31:51.562Z,50.300999
2022-11-19T05:33:01.168Z,50.283001
2022-11-19T05:34:10.762Z,50.258999
2022-11-19T05:35:18.394Z,50.264999
2022-11-19T05:36:25.913Z,50.271
2022-11-19T05:37:35.500Z,50.252998
2022-11-19T05:38:44.095Z,50.258999
2022-11-19T05:39:52.696Z,50.252998
2022-11-19T05:41:01.285Z,50.247002
2022-11-19T05:42:10.908Z,50.264999
2022-11-19T05:43:20.449Z,50.277
2022-11-19T05:44:28.035Z,50.229
2022-11-19T05:45:35.595Z,50.172001
2022-11-19T05:46:45.196Z,50.136002
2022-11-19T05:47:53.793Z,50.118
2022-11-19T05:49:02.383Z,50.147999
2022-11-19T05:50:10.939Z,50.16
2022-11-19T05:51:20.573Z,50.241001
2022-11-19T05:52:30.139Z,50.294998
2022-11-19T05:53:37.752Z,50.294998
2022-11-19T05:54:45.329Z,50.313
2022-11-19T05:55:54.926Z,50.306999
2022-11-19T05:57:03.484Z,50.294998
2022-11-19T05:58:12.085Z,50.277
2022-11-19T05:59:21.111Z,50.313
2022-11-19T06:00:29.248Z,50.291
2022-11-19T06:01:36.840Z,50.285
2022-11-19T06:02:46.418Z,50.297001
2022-11-19T06:03:54.983Z,50.341
2022-11-19T06:05:03.580Z,50.549
2022-11-19T06:06:12.168Z,50.573002
2022-11-19T06:07:21.851Z,50.685001
2022-11-19T06:08:31.349Z,50.832001
2022-11-19T06:09:38.922Z,50.923
2022-11-19T06:10:46.530Z,51.028999
2022-11-19T06:11:56.072Z,51.077
2022-11-19T06:13:04.657Z,51.104
2022-11-19T06:14:13.259Z,51.127998
2022-11-19T06:15:22.883Z,51.139999
2022-11-19T06:16:31.471Z,51.165001
2022-11-19T06:17:41.072Z,51.158001
2022-11-19T06:18:48.635Z,51.171001
2022-11-19T06:19:57.215Z,51.182999
2022-11-19T06:21:10.945Z,51.182999
2022-11-19T06:22:16.351Z,51.188999
2022-11-19T06:23:25.980Z,51.182999
2022-11-19T06:24:35.555Z,51.188999
2022-11-19T06:25:44.102Z,51.207001
2022-11-19T06:26:53.701Z,51.207001
2022-11-19T06:28:01.296Z,51.219002
2022-11-19T06:29:08.872Z,51.219002
2022-11-19T06:30:18.519Z,51.207001
2022-11-19T06:31:27.080Z,51.207001
2022-11-19T06:32:35.610Z,51.213001
2022-11-19T06:33:44.272Z,51.207001
2022-11-19T06:34:52.854Z,51.201
2022-11-19T06:36:02.446Z,51.207001
2022-11-19T06:37:11.034Z,51.195
2022-11-19T06:38:18.620Z,51.188999
2022-11-19T06:39:28.215Z,51.207001
2022-11-19T06:40:37.765Z,51.195
2022-11-19T06:41:46.350Z,51.165001
2022-11-19T06:42:54.939Z,51.201
2022-11-19T06:44:04.544Z,51.152
2022-11-19T06:45:14.144Z,51.041
2022-11-19T06:46:21.731Z,50.950001
2022-11-19T06:47:29.297Z,50.851002
2022-11-19T06:48:39.004Z,50.778
2022-11-19T06:49:47.568Z,50.738998
2022-11-19T06:50:57.237Z,50.673
2022-11-19T06:52:05.827Z,50.618
2022-11-19T06:53:14.476Z,50.585999
2022-11-19T06:54:24.091Z,50.542999
2022-11-19T06:55:33.776Z,50.513
2022-11-19T06:56:41.419Z,50.481998
2022-11-19T06:57:51.006Z,50.464001
2022-11-19T06:58:59.638Z,50.425999
2022-11-19T07:00:08.222Z,50.419998
2022-11-19T07:01:16.866Z,50.396
2022-11-19T07:02:25.480Z,50.396
2022-11-19T07:03:35.111Z,50.383999
2022-11-19T07:04:43.733Z,50.402
2022-11-19T07:05:51.311Z,50.400002
2022-11-19T07:07:00.982Z,50.424
2022-11-19T07:08:09.548Z,50.508999
2022-11-19T07:09:19.401Z,50.521
2022-11-19T07:10:27.731Z,50.602001
2022-11-19T07:11:37.344Z,50.662998
2022-11-19T07:12:46.950Z,50.75
2022-11-19T07:13:54.558Z,50.855
2022-11-19T07:15:04.838Z,50.933998
2022-11-19T07:16:13.741Z,50.998001
2022-11-19T07:17:22.330Z,51.064999
2022-11-19T07:18:30.949Z,51.083
2022-11-19T07:19:39.519Z,51.110001
2022-11-19T07:20:48.141Z,51.127998
2022-11-19T07:21:57.878Z,51.139999
2022-11-19T07:23:05.493Z,51.146
2022-11-19T07:24:13.065Z,51.133999
2022-11-19T07:25:22.678Z,51.122002
2022-11-19T07:26:31.236Z,51.091999
2022-11-19T07:27:40.846Z,51.070999
2022-11-19T07:28:50.410Z,51.041
2022-11-19T07:30:00.029Z,50.998001
2022-11-19T07:31:09.604Z,50.967999
2022-11-19T07:32:17.206Z,50.938
2022-11-19T07:33:24.781Z,50.898998
2022-11-19T07:34:34.367Z,50.862999
2022-11-19T07:35:44.048Z,50.77
2022-11-19T07:36:52.622Z,50.744999
2022-11-19T07:38:02.329Z,50.790001
2022-11-19T07:39:10.977Z,50.778
2022-11-19T07:40:19.540Z,50.784
2022-11-19T07:41:27.117Z,50.784
2022-11-19T07:42:35.692Z,50.750999
2022-11-19T07:43:45.356Z,50.630001
2022-11-19T07:44:55.264Z,50.618
2022-11-19T07:46:03.503Z,50.673
2022-11-19T07:47:13.089Z,50.678001
2022-11-19T07:48:22.687Z,50.727001
2022-11-19T07:49:31.268Z,50.750999
2022-11-19T07:50:38.881Z,50.778
2022-11-19T07:51:46.502Z,50.778
2022-11-19T07:52:56.107Z,50.768002
2022-11-19T07:54:04.741Z,50.792
2022-11-19T07:55:13.315Z,50.798
2022-11-19T07:56:21.903Z,50.811001
2022-11-19T07:57:31.460Z,50.821999
2022-11-19T07:58:39.079Z,50.811001
2022-11-19T07:59:48.699Z,50.804001
2022-11-19T08:00:58.286Z,50.785999
2022-11-19T08:02:06.993Z,50.785999
2022-11-19T08:03:15.510Z,50.785999
2022-11-19T08:04:24.104Z,50.785999
2022-11-19T08:05:33.736Z,50.785999
2022-11-19T08:06:41.326Z,50.773998
2022-11-19T08:07:48.889Z,50.768002
2022-11-19T08:08:58.499Z,50.762001
2022-11-19T08:10:07.064Z,50.773998
2022-11-19T08:11:15.643Z,50.75
2022-11-19T08:12:24.239Z,50.756001
2022-11-19T08:13:32.823Z,50.731998
2022-11-19T08:14:42.395Z,50.75
2022-11-19T08:15:49.986Z,50.756001
2022-11-19T08:16:58.541Z,50.756001
2022-11-19T08:18:08.121Z,50.762001
2022-11-19T08:19:16.770Z,50.768002
2022-11-19T08:20:26.300Z,50.768002
2022-11-19T08:21:35.897Z,50.808998
2022-11-19T08:22:44.524Z,50.808998
2022-11-19T08:23:54.177Z,50.803001
2022-11-19T08:25:01.765Z,50.785
2022-11-19T08:26:09.356Z,50.808998
2022-11-19T08:27:18.997Z,50.919998
2022-11-19T08:28:26.579Z,50.993
2022-11-19T08:29:35.154Z,51.037998
2022-11-19T08:30:43.732Z,51.105
2022-11-19T08:31:53.364Z,51.153
2022-11-19T08:33:02.922Z,51.203999
2022-11-19T08:34:10.505Z,51.228001
2022-11-19T08:35:18.063Z,51.198002
2022-11-19T08:36:26.635Z,51.159
2022-11-19T08:37:35.232Z,51.123001
2022-11-19T08:38:43.809Z,51.085999
2022-11-19T08:39:52.367Z,51.080002
2022-11-19T08:41:00.946Z,51.037998
2022-11-19T08:42:10.525Z,51.026001
2022-11-19T08:43:19.120Z,51.005001
2022-11-19T08:44:26.656Z,51.009998
2022-11-19T08:45:36.290Z,50.973
2022-11-19T08:46:44.855Z,50.960999
2022-11-19T08:47:54.469Z,50.955002
2022-11-19T08:49:04.032Z,50.931
2022-11-19T08:50:13.590Z,50.897999
2022-11-19T08:51:23.162Z,50.904999
2022-11-19T08:52:30.738Z,50.897999
2022-11-19T08:53:39.327Z,50.897999
2022-11-19T08:54:48.904Z,50.868
2022-11-19T08:55:57.493Z,50.838001
2022-11-19T08:57:07.083Z,50.826
2022-11-19T08:58:16.866Z,50.794998
2022-11-19T08:59:25.430Z,50.806999
2022-11-19T09:00:35.046Z,50.806999
2022-11-19T09:01:43.567Z,50.806999
2022-11-19T09:02:51.167Z,50.769001
2022-11-19T09:04:00.768Z,50.763
2022-11-19T09:05:14.355Z,50.750999
2022-11-19T09:06:19.056Z,50.737
2022-11-19T09:07:27.637Z,50.730999
2022-11-19T09:08:36.216Z,50.719002
2022-11-19T09:09:45.830Z,50.707001
2022-11-19T09:10:53.401Z,50.707001
2022-11-19T09:11:59.960Z,50.707001
2022-11-19T09:13:09.557Z,50.707001
2022-11-19T09:14:19.451Z,50.68
2022-11-19T09:15:27.751Z,50.695
2022-11-19T09:16:37.361Z,50.676998
2022-11-19T09:17:47.248Z,50.676998
2022-11-19T09:18:56.503Z,50.608002
2022-11-19T09:20:06.363Z,50.632999
2022-11-19T09:21:14.959Z,50.671001
2022-11-19T09:22:24.523Z,50.688999
2022-11-19T09:23:34.324Z,50.707001
2022-11-19T09:24:42.894Z,50.724998
2022-11-19T09:25:51.528Z,50.762001
2022-11-19T09:27:02.496Z,50.784
2022-11-19T09:28:11.194Z,50.803001
2022-11-19T09:29:21.006Z,50.820999
2022-11-19T09:30:28.782Z,50.856998
2022-11-19T09:31:38.678Z,50.902
2022-11-19T09:32:47.644Z,50.974998
2022-11-19T09:33:56.292Z,51.056
2022-11-19T09:35:06.061Z,51.134998
2022-11-19T09:36:16.404Z,51.117001
2022-11-19T09:37:26.218Z,51.056
2022-11-19T09:38:36.012Z,51.089001
2022-11-19T09:39:43.732Z,51.076
2022-11-19T09:40:53.299Z,51.083
2022-11-19T09:42:01.889Z,51.103001
2022-11-19T09:43:15.349Z,51.103001
2022-11-19T09:44:21.598Z,51.095001
2022-11-19T09:45:30.935Z,51.098999
2022-11-19T09:46:40.576Z,51.098999
2022-11-19T09:47:49.277Z,51.111
2022-11-19T09:48:59.025Z,51.081001
2022-11-19T09:50:08.717Z,51.074001
2022-11-19T09:51:17.317Z,51.056
2022-11-19T09:52:26.913Z,51.049999
2022-11-19T09:53:36.535Z,51.061001
2022-11-19T09:54:45.116Z,51.040001
2022-11-19T09:55:53.864Z,51.040001
2022-11-19T09:57:04.572Z,51.051998
2022-11-19T09:58:12.992Z,51.063
2022-11-19T09:59:22.621Z,51.039001
2022-11-19T10:00:31.195Z,51.075001
2022-11-19T10:01:39.737Z,51.080002
2022-11-19T10:02:49.455Z,51.067001
2022-11-19T10:03:57.073Z,51.061001
2022-11-19T10:05:05.657Z,51.067001
2022-11-19T10:06:15.285Z,51.082001
2022-11-19T10:07:24.003Z,51.080002
2022-11-19T10:08:33.656Z,51.117001
2022-11-19T10:09:43.274Z,51.104
2022-11-19T10:10:52.886Z,51.074001
2022-11-19T10:12:02.507Z,51.015999
2022-11-19T10:13:11.141Z,51.046001
2022-11-19T10:14:19.445Z,51.034
2022-11-19T10:15:30.899Z,51.078999
2022-11-19T10:16:38.215Z,51.098999
2022-11-19T10:17:46.760Z,51.098999
2022-11-19T10:18:55.448Z,51.087002
2022-11-19T10:20:04.019Z,51.073002
2022-11-19T10:21:13.771Z,51.055
2022-11-19T10:22:21.383Z,51.02
2022-11-19T10:23:28.953Z,50.978001
2022-11-19T10:24:38.628Z,50.967999
2022-11-19T10:25:48.250Z,50.973999
2022-11-19T10:26:56.832Z,50.944
2022-11-19T10:28:07.475Z,50.962002
2022-11-19T10:29:16.034Z,50.918999
2022-11-19T10:30:25.744Z,50.879002
2022-11-19T10:31:33.370Z,50.861
2022-11-19T10:32:41.190Z,50.825001
2022-11-19T10:33:50.955Z,50.800999
2022-11-19T10:34:59.696Z,50.819
2022-11-19T10:36:08.279Z,50.800999
2022-11-19T10:37:16.969Z,50.776001
2022-11-19T10:38:25.625Z,50.742001
2022-11-19T10:39:35.347Z,50.748001
2022-11-19T10:40:44.103Z,50.771999
2022-11-19T10:41:51.543Z,50.759998
2022-11-19T10:43:01.249Z,50.723999
2022-11-19T10:44:11.981Z,50.73
2022-11-19T10:45:21.665Z,50.724998
2022-11-19T10:46:30.583Z,50.706001
2022-11-19T10:47:39.364Z,50.658001
2022-11-19T10:48:49.330Z,50.653999
2022-11-19T10:49:58.956Z,50.672001
2022-11-19T10:51:09.932Z,50.641998
2022-11-19T10:52:19.664Z,50.618
2022-11-19T10:53:28.276Z,50.641998
2022-11-19T10:54:38.203Z,50.627998
2022-11-19T10:55:53.020Z,50.619999
2022-11-19T10:56:57.902Z,50.602001
2022-11-19T10:58:07.583Z,50.608002
2022-11-19T10:59:15.581Z,50.608002
2022-11-19T11:00:24.555Z,50.608002
2022-11-19T11:01:35.862Z,50.608002
2022-11-19T11:02:44.722Z,50.588001
2022-11-19T11:03:53.278Z,50.582001
2022-11-19T11:05:02.970Z,50.57
2022-11-19T11:06:12.732Z,50.539001
2022-11-19T11:07:22.362Z,50.540001
2022-11-19T11:08:30.086Z,50.528
2022-11-19T11:09:39.849Z,50.509998
2022-11-19T11:10:49.363Z,50.509998
2022-11-19T11:11:58.118Z,50.512001
2022-11-19T11:13:08.113Z,50.481998
2022-11-19T11:14:18.366Z,50.469002
2022-11-19T11:15:28.463Z,50.469002
2022-11-19T11:16:38.977Z,50.451
2022-11-19T11:17:47.391Z,50.448002
2022-11-19T11:18:56.204Z,50.436001
2022-11-19T11:20:05.981Z,50.417
2022-11-19T11:21:16.090Z,50.417
2022-11-19T11:22:26.149Z,50.411999
2022-11-19T11:23:36.459Z,50.394001
2022-11-19T11:24:45.361Z,50.363998
2022-11-19T11:25:55.382Z,50.363998
2022-11-19T11:27:04.024Z,50.333
2022-11-19T11:28:11.680Z,50.294998
2022-11-19T11:29:21.450Z,50.314999
2022-11-19T11:30:31.362Z,50.323002
2022-11-19T11:31:40.958Z,50.299
2022-11-19T11:32:49.753Z,50.269001
2022-11-19T11:33:58.352Z,50.275002
2022-11-19T11:35:11.017Z,50.291
2022-11-19T11:36:18.539Z,50.258999
2022-11-19T11:37:26.330Z,50.291
2022-11-19T11:38:35.931Z,50.187
2022-11-19T11:39:44.523Z,50.176998
2022-11-19T11:41:11.653Z,50.215
2022-11-19T11:42:06.535Z,50.227001
2022-11-19T11:43:14.549Z,50.202999
2022-11-19T11:44:24.236Z,50.176998
2022-11-19T11:45:32.988Z,50.162998
2022-11-19T11:46:41.585Z,50.157001
2022-11-19T11:47:51.489Z,50.117001
2022-11-19T11:49:07.069Z,50.074001
2022-11-19T11:50:10.720Z,50.111
2022-11-19T11:51:19.350Z,50.092999
2022-11-19T11:52:27.933Z,50.074001
2022-11-19T11:53:37.673Z,50.091
2022-11-19T11:54:47.251Z,50.132999
2022-11-19T11:55:55.795Z,50.169998
2022-11-19T11:57:05.368Z,50.181999
2022-11-19T11:58:14.130Z,50.216
2022-11-19T11:59:23.751Z,50.228001
2022-11-19T12:00:33.324Z,50.297001
2022-11-19T12:01:40.904Z,50.352001
2022-11-19T12:02:48.455Z,50.369999
2022-11-19T12:03:58.047Z,50.445
2022-11-19T12:05:06.663Z,50.474998
2022-11-19T12:06:15.239Z,50.493
2022-11-19T12:07:24.959Z,50.529999
2022-11-19T12:08:33.437Z,50.556
2022-11-19T12:09:43.014Z,50.585999
2022-11-19T12:10:50.631Z,50.632999
2022-11-19T12:11:59.339Z,50.651001
2022-11-19T12:13:08.937Z,50.688
2022-11-19T12:14:17.778Z,50.723999
2022-11-19T12:15:27.425Z,50.747002
2022-11-19T12:16:36.958Z,50.777
2022-11-19T12:17:45.520Z,50.789001
2022-11-19T12:18:55.085Z,50.794998
2022-11-19T12:20:02.639Z,50.834
2022-11-19T12:21:12.971Z,50.863998
2022-11-19T12:22:22.550Z,50.918999
2022-11-19T12:23:31.120Z,50.946999
2022-11-19T12:24:39.689Z,50.972
2022-11-19T12:25:48.245Z,50.978001
2022-11-19T12:26:56.910Z,51.004002
2022-11-19T12:28:06.495Z,51.022999
2022-11-19T12:29:15.058Z,51.041
2022-11-19T12:30:23.640Z,51.058998
2022-11-19T12:31:33.299Z,51.063999
2022-11-19T12:32:42.898Z,51.105999
2022-11-19T12:33:51.459Z,51.094002
2022-11-19T12:35:00.079Z,51.129002
2022-11-19T12:36:08.646Z,51.140999
2022-11-19T12:37:18.234Z,51.159
2022-11-19T12:38:25.822Z,51.176998
2022-11-19T12:39:33.335Z,51.171001
2022-11-19T12:40:42.945Z,51.183998
2022-11-19T12:41:51.660Z,51.202
2022-11-19T12:43:00.204Z,51.208
2022-11-19T12:44:08.792Z,51.243
2022-11-19T12:45:17.360Z,51.256001
2022-11-19T12:46:26.951Z,51.262001
2022-11-19T12:47:34.524Z,51.268002
2022-11-19T12:48:44.097Z,51.265999
2022-11-19T12:49:53.669Z,51.278
2022-11-19T12:51:02.285Z,51.278
2022-11-19T12:52:11.813Z,51.294998
2022-11-19T12:53:20.837Z,51.262001
2022-11-19T12:54:34.865Z,51.243999
2022-11-19T12:55:40.951Z,51.272999
2022-11-19T12:56:49.516Z,51.272999
2022-11-19T12:57:57.092Z,51.223999
2022-11-19T12:59:05.632Z,51.210999
2022-11-19T13:00:14.198Z,51.210999
2022-11-19T13:01:23.001Z,51.208
2022-11-19T13:02:31.536Z,51.231998
2022-11-19T13:03:41.469Z,51.240002
2022-11-19T13:04:51.002Z,51.217999
2022-11-19T13:05:58.555Z,51.217999
2022-11-19T13:07:07.302Z,51.217999
2022-11-19T13:08:16.749Z,51.229
2022-11-19T13:09:25.558Z,51.230999
2022-11-19T13:10:35.132Z,51.219002
2022-11-19T13:11:44.080Z,51.229
2022-11-19T13:12:52.669Z,51.229
2022-11-19T13:14:02.237Z,51.216999
2022-11-19T13:15:11.845Z,51.173
2022-11-19T13:16:19.531Z,51.118
2022-11-19T13:17:29.451Z,51.084
2022-11-19T13:18:38.013Z,51.005001
2022-11-19T13:19:47.621Z,50.948002
2022-11-19T13:20:56.220Z,50.884998
2022-11-19T13:22:04.821Z,50.853001
2022-11-19T13:23:14.389Z,50.789001
2022-11-19T13:24:22.398Z,50.740002